createdAt,value
2024-02-06T00:01:31.973Z,13.79
2024-02-06T00:04:02.272Z,12.66
2024-02-06T00:06:30.538Z,12.15
2024-02-06T00:08:58.535Z,13.06
2024-02-06T00:11:26.594Z,13.92
2024-02-06T00:13:54.662Z,14.52
2024-02-06T00:16:23.101Z,14.25
2024-02-06T00:18:51.362Z,13.13
2024-02-06T00:21:19.670Z,12.17
2024-02-06T00:23:47.773Z,12.05
2024-02-06T00:26:16.117Z,13.36
2024-02-06T00:28:44.315Z,14.20
2024-02-06T00:31:12.503Z,14.71
2024-02-06T00:33:40.671Z,14.41
2024-02-06T00:36:09.010Z,13.27
2024-02-06T00:38:37.426Z,12.49
2024-02-06T00:41:05.766Z,13.41
2024-02-06T00:43:34.034Z,14.52
2024-02-06T00:46:02.825Z,14.96
2024-02-06T00:48:31.225Z,13.78
2024-02-06T00:50:59.795Z,12.68
2024-02-06T00:53:28.822Z,12.44
2024-02-06T00:55:57.280Z,13.94
2024-02-06T00:58:25.490Z,15.06
2024-02-06T01:00:53.751Z,14.78
2024-02-06T01:03:21.970Z,13.58
2024-02-06T01:05:50.496Z,12.52
2024-02-06T01:08:19.425Z,12.21
2024-02-06T01:10:47.792Z,13.75
2024-02-06T01:13:16.357Z,14.87
2024-02-06T01:15:44.499Z,14.56
2024-02-06T01:18:12.731Z,13.47
2024-02-06T01:20:40.946Z,12.51
2024-02-06T01:23:09.435Z,12.47
2024-02-06T01:25:39.105Z,13.90
2024-02-06T01:28:07.644Z,14.65
2024-02-06T01:30:35.786Z,13.77
2024-02-06T01:33:04.370Z,12.61
2024-02-06T01:35:33.598Z,12.42
2024-02-06T01:38:01.951Z,13.88
2024-02-06T01:40:30.271Z,14.82
2024-02-06T01:44:07.889Z,13.91
2024-02-06T01:46:36.937Z,12.85
2024-02-06T01:49:06.896Z,12.03
2024-02-06T01:51:39.043Z,11.83
2024-02-06T01:54:07.500Z,13.09
2024-02-06T01:56:36.343Z,14.34
2024-02-06T01:59:06.769Z,14.83
2024-02-06T02:01:35.413Z,13.89
2024-02-06T02:04:05.469Z,12.84
2024-02-06T02:06:34.179Z,12.05
2024-02-06T02:09:03.573Z,12.07
2024-02-06T02:11:33.307Z,13.36
2024-02-06T02:14:01.809Z,14.35
2024-02-06T02:16:29.769Z,14.69
2024-02-06T02:19:00.367Z,13.73
2024-02-06T02:21:28.491Z,12.70
2024-02-06T02:23:57.012Z,11.95
2024-02-06T02:26:25.536Z,11.86
2024-02-06T02:28:54.410Z,13.21
2024-02-06T02:31:23.549Z,14.22
2024-02-06T02:33:51.797Z,13.87
2024-02-06T02:36:19.972Z,12.83
2024-02-06T02:38:48.558Z,12.05
2024-02-06T02:41:16.476Z,11.76
2024-02-06T02:43:44.369Z,12.79
2024-02-06T02:46:13.127Z,13.78
2024-02-06T02:48:41.491Z,13.39
2024-02-06T02:51:09.511Z,12.52
2024-02-06T02:53:37.586Z,11.82
2024-02-06T02:56:06.497Z,11.57
2024-02-06T02:58:36.183Z,12.75
2024-02-06T03:01:04.420Z,13.87
2024-02-06T03:03:32.534Z,13.64
2024-02-06T03:06:00.771Z,12.69
2024-02-06T03:08:28.788Z,11.92
2024-02-06T03:10:57.162Z,11.35
2024-02-06T03:13:25.347Z,11.27
2024-02-06T03:15:54.277Z,12.57
2024-02-06T03:18:22.416Z,13.10
2024-02-06T03:20:50.366Z,12.46
2024-02-06T03:23:20.575Z,11.69
2024-02-06T03:25:48.675Z,11.18
2024-02-06T03:28:16.896Z,11.96
2024-02-06T03:30:46.401Z,13.56
2024-02-06T03:33:14.402Z,14.24
2024-02-06T03:35:42.575Z,13.45
2024-02-06T03:38:10.736Z,12.54
2024-02-06T03:40:38.944Z,11.80
2024-02-06T03:43:07.063Z,11.27
2024-02-06T03:45:35.083Z,11.57
2024-02-06T03:48:03.175Z,12.65
2024-02-06T03:50:31.288Z,13.24
2024-02-06T03:52:59.183Z,12.78
2024-02-06T03:55:27.189Z,11.96
2024-02-06T03:57:55.354Z,11.37
2024-02-06T04:00:23.689Z,11.22
2024-02-06T04:02:51.601Z,12.14
2024-02-06T04:05:19.865Z,13.10
2024-02-06T04:07:48.043Z,13.50
2024-02-06T04:10:16.198Z,12.88
2024-02-06T04:12:45.495Z,12.16
2024-02-06T04:15:13.628Z,11.59
2024-02-06T04:17:41.651Z,11.37
2024-02-06T04:20:09.869Z,12.22
2024-02-06T04:22:38.236Z,13.16
2024-02-06T04:25:06.997Z,13.52
2024-02-06T04:27:35.843Z,12.85
2024-02-06T04:30:05.487Z,12.13
2024-02-06T04:32:33.614Z,11.57
2024-02-06T04:35:02.470Z,11.41
2024-02-06T04:37:30.725Z,12.28
2024-02-06T04:39:58.763Z,13.22
2024-02-06T04:42:26.971Z,13.88
2024-02-06T04:44:54.841Z,13.71
2024-02-06T04:47:22.927Z,12.85
2024-02-06T04:49:50.987Z,12.13
2024-02-06T04:52:19.168Z,11.62
2024-02-06T04:54:47.270Z,11.51
2024-02-06T04:57:15.981Z,12.39
2024-02-06T04:59:43.993Z,13.26
2024-02-06T05:02:13.623Z,13.59
2024-02-06T05:04:41.725Z,12.98
2024-02-06T05:07:10.125Z,12.17
2024-02-06T05:09:38.414Z,11.82
2024-02-06T05:12:07.958Z,12.53
2024-02-06T05:14:38.238Z,13.56
2024-02-06T05:17:06.394Z,14.21
2024-02-06T05:19:34.645Z,13.53
2024-02-06T05:22:04.712Z,12.64
2024-02-06T05:24:32.723Z,11.96
2024-02-06T05:27:00.720Z,12.19
2024-02-06T05:29:28.898Z,13.38
2024-02-06T05:31:57.310Z,14.34
2024-02-06T05:34:26.056Z,14.72
2024-02-06T05:36:54.220Z,13.83
2024-02-06T05:39:22.813Z,12.86
2024-02-06T05:41:50.796Z,12.11
2024-02-06T05:44:19.761Z,12.27
2024-02-06T05:46:48.008Z,13.57
2024-02-06T05:49:16.264Z,14.59
2024-02-06T05:51:44.241Z,14.96
2024-02-06T05:54:12.179Z,14.06
2024-02-06T05:56:40.251Z,13.08
2024-02-06T05:59:09.426Z,12.34
2024-02-06T06:01:37.915Z,12.13
2024-02-06T06:04:06.109Z,13.34
2024-02-06T06:06:34.322Z,14.51
2024-02-06T06:09:02.495Z,14.92
2024-02-06T06:11:30.443Z,14.02
2024-02-06T06:13:58.371Z,13.02
2024-02-06T06:16:26.774Z,12.26
2024-02-06T06:18:55.688Z,12.28
2024-02-06T06:21:24.076Z,13.54
2024-02-06T06:23:52.119Z,14.39
2024-02-06T06:26:20.050Z,14.71
2024-02-06T06:28:48.013Z,13.86
2024-02-06T06:31:17.024Z,12.89
2024-02-06T06:33:45.386Z,12.41
2024-02-06T06:36:13.454Z,13.38
2024-02-06T06:38:41.298Z,14.31
2024-02-06T06:41:09.477Z,14.45
2024-02-06T06:43:37.484Z,13.69
2024-02-06T06:46:05.586Z,12.80
2024-02-06T06:48:35.535Z,12.36
2024-02-06T06:51:03.955Z,12.91
2024-02-06T06:53:32.365Z,13.29
2024-02-06T06:56:00.304Z,13.52
2024-02-06T06:58:29.530Z,13.56
2024-02-06T07:00:57.623Z,13.42
2024-02-06T07:03:26.109Z,13.43
2024-02-06T07:05:54.505Z,13.88
2024-02-06T07:08:22.589Z,14.52
2024-02-06T07:10:50.609Z,14.44
2024-02-06T07:13:18.952Z,13.41
2024-02-06T07:15:47.251Z,12.56
2024-02-06T07:18:15.528Z,12.20
2024-02-06T07:20:43.865Z,13.21
2024-02-06T07:23:11.778Z,14.30
2024-02-06T07:25:39.829Z,14.78
2024-02-06T07:28:08.004Z,13.89
2024-02-06T07:30:40.241Z,12.98
2024-02-06T07:33:10.059Z,12.32
2024-02-06T07:35:40.215Z,11.90
2024-02-06T07:38:09.022Z,12.55
2024-02-06T07:40:38.067Z,14.03
2024-02-06T07:43:06.405Z,14.57
2024-02-06T07:45:34.655Z,13.81
2024-02-06T07:48:02.682Z,12.97
2024-02-06T07:50:30.872Z,12.33
2024-02-06T07:52:58.861Z,12.13
2024-02-06T07:55:26.973Z,13.32
2024-02-06T07:57:54.975Z,14.30
2024-02-06T08:00:23.182Z,13.71
2024-02-06T08:02:51.883Z,12.89
2024-02-06T08:05:20.382Z,12.26
2024-02-06T08:07:48.649Z,12.01
2024-02-06T08:10:16.734Z,13.31
2024-02-06T08:12:45.631Z,14.32
2024-02-06T08:15:14.356Z,13.73
2024-02-06T08:17:43.938Z,12.86
2024-02-06T08:20:14.814Z,12.20
2024-02-06T08:22:50.805Z,11.74
2024-02-06T08:25:19.748Z,11.85
2024-02-06T08:27:47.875Z,13.38
2024-02-06T08:30:16.119Z,14.68
2024-02-06T08:32:45.145Z,14.90
2024-02-06T08:35:13.859Z,13.93
2024-02-06T08:37:42.257Z,13.07
2024-02-06T08:40:12.264Z,12.43
2024-02-06T08:42:40.809Z,11.96
2024-02-06T08:45:09.538Z,12.21
2024-02-06T08:47:38.113Z,13.73
2024-02-06T08:50:07.936Z,14.59
2024-02-06T08:52:36.592Z,13.96
2024-02-06T08:55:06.451Z,13.09
2024-02-06T08:57:34.665Z,12.45
2024-02-06T09:00:05.804Z,11.97
2024-02-06T09:02:33.715Z,11.88
2024-02-06T09:05:01.684Z,13.21
2024-02-06T09:07:29.991Z,14.24
2024-02-06T09:10:01.351Z,13.67
2024-02-06T09:12:29.781Z,12.86
2024-02-06T09:15:02.306Z,12.25
2024-02-06T09:17:32.018Z,11.81
2024-02-06T09:20:00.160Z,11.93
2024-02-06T09:22:28.569Z,13.38
2024-02-06T09:24:56.854Z,14.46
2024-02-06T09:27:24.983Z,13.93
2024-02-06T09:29:53.005Z,13.13
2024-02-06T09:32:20.945Z,12.54
2024-02-06T09:34:49.472Z,12.09
2024-02-06T09:37:17.806Z,11.74
2024-02-06T09:39:46.479Z,11.89
2024-02-06T09:42:15.755Z,12.89
2024-02-06T09:44:46.429Z,14.17
2024-02-06T09:47:16.984Z,14.90
2024-02-06T09:49:46.246Z,14.25
2024-02-06T09:52:16.521Z,13.43
2024-02-06T09:54:50.642Z,12.87
2024-02-06T09:57:23.695Z,12.45
2024-02-06T09:59:54.804Z,12.11
2024-02-06T10:02:25.430Z,11.91
2024-02-06T10:04:56.370Z,12.81
2024-02-06T10:07:25.359Z,14.34
2024-02-06T10:09:55.564Z,15.04
2024-02-06T10:12:25.122Z,14.33
2024-02-06T10:14:52.972Z,13.46
2024-02-06T10:17:21.044Z,12.83
2024-02-06T10:19:49.862Z,12.36
2024-02-06T10:22:18.519Z,12.02
2024-02-06T10:24:46.629Z,12.05
2024-02-06T10:27:16.987Z,13.24
2024-02-06T10:29:44.870Z,14.11
2024-02-06T10:32:17.705Z,13.67
2024-02-06T10:34:48.288Z,12.98
2024-02-06T10:37:16.823Z,12.50
2024-02-06T10:39:45.252Z,12.11
2024-02-06T10:42:52.438Z,11.82
2024-02-06T10:45:03.849Z,11.96
2024-02-06T10:47:33.116Z,13.28
2024-02-06T10:50:08.749Z,14.12
2024-02-06T10:52:37.121Z,13.61
2024-02-06T10:55:06.076Z,12.96
2024-02-06T10:57:36.143Z,12.48
2024-02-06T11:00:19.169Z,12.05
2024-02-06T11:02:53.737Z,12.04
2024-02-06T11:05:35.645Z,13.23
2024-02-06T11:08:09.279Z,14.18
2024-02-06T11:10:48.152Z,13.80
2024-02-06T11:13:31.909Z,13.00
2024-02-06T11:16:04.350Z,12.41
2024-02-06T11:19:00.750Z,12.11
2024-02-06T11:21:33.003Z,13.10
2024-02-06T11:24:01.006Z,14.12
2024-02-06T11:26:29.146Z,14.58
2024-02-06T11:28:57.682Z,13.93
2024-02-06T11:31:26.268Z,13.22
2024-02-06T11:33:54.417Z,12.73
2024-02-06T11:36:22.717Z,12.37
2024-02-06T11:38:50.556Z,12.41
2024-02-06T11:41:23.932Z,13.85
2024-02-06T11:43:52.717Z,15.06
2024-02-06T11:46:24.295Z,14.69
2024-02-06T11:48:52.589Z,13.90
2024-02-06T11:51:26.877Z,13.33
2024-02-06T11:53:55.067Z,12.93
2024-02-06T11:56:23.131Z,12.67
2024-02-06T11:58:51.733Z,13.35
2024-02-06T12:01:27.346Z,14.45
2024-02-06T12:03:57.512Z,14.57
2024-02-06T12:06:25.866Z,13.96
2024-02-06T12:09:09.207Z,13.51
2024-02-06T12:11:41.668Z,13.18
2024-02-06T12:14:16.399Z,12.91
2024-02-06T12:16:46.442Z,12.96
2024-02-06T12:19:16.267Z,14.00
2024-02-06T12:21:45.464Z,14.74
2024-02-06T12:24:13.360Z,14.30
2024-02-06T12:26:41.189Z,13.69
2024-02-06T12:29:09.289Z,13.22
2024-02-06T12:31:39.152Z,12.90
2024-02-06T12:34:08.923Z,12.77
2024-02-06T12:36:39.232Z,13.58
2024-02-06T12:39:14.826Z,14.77
2024-02-06T12:41:42.893Z,15.21
2024-02-06T12:44:13.849Z,14.62
2024-02-06T12:46:44.714Z,13.92
2024-02-06T12:49:13.776Z,13.43
2024-02-06T12:51:41.916Z,13.07
2024-02-06T12:54:10.175Z,12.84
2024-02-06T12:56:38.248Z,13.54
2024-02-06T12:59:16.623Z,15.00
2024-02-06T13:01:52.998Z,15.69
2024-02-06T13:04:26.049Z,14.93
2024-02-06T13:06:55.437Z,14.09
2024-02-06T13:09:28.377Z,13.55
2024-02-06T13:11:56.494Z,13.14
2024-02-06T13:14:24.716Z,12.83
2024-02-06T13:16:54.447Z,12.86
2024-02-06T13:19:24.336Z,14.09
2024-02-06T13:21:52.532Z,15.09
2024-02-06T13:24:20.516Z,14.58
2024-02-06T13:26:48.966Z,13.86
2024-02-06T13:29:16.903Z,13.27
2024-02-06T13:31:45.377Z,12.80
2024-02-06T13:34:13.487Z,12.44
2024-02-06T13:36:41.682Z,12.41
2024-02-06T13:39:12.336Z,13.63
2024-02-06T13:41:40.900Z,14.98
2024-02-06T13:44:09.832Z,15.60
2024-02-06T13:46:38.229Z,14.90
2024-02-06T13:49:07.624Z,14.02
2024-02-06T13:51:35.973Z,13.37
2024-02-06T13:54:04.362Z,12.90
2024-02-06T13:56:32.219Z,12.54
2024-02-06T13:59:00.468Z,12.54
2024-02-06T14:01:28.632Z,13.78
2024-02-06T14:03:56.900Z,14.77
2024-02-06T14:06:26.117Z,14.23
2024-02-06T14:08:55.307Z,13.48
2024-02-06T14:11:27.436Z,12.92
2024-02-06T14:13:56.065Z,12.52
2024-02-06T14:16:25.266Z,12.20
2024-02-06T14:18:53.956Z,12.23
2024-02-06T14:21:22.342Z,13.39
2024-02-06T14:23:50.272Z,14.30
2024-02-06T14:26:18.158Z,13.92
2024-02-06T14:28:47.107Z,13.22
2024-02-06T14:31:15.165Z,12.69
2024-02-06T14:33:43.406Z,12.32
2024-02-06T14:36:11.818Z,12.33
2024-02-06T14:38:39.852Z,13.54
2024-02-06T14:41:07.782Z,14.42
2024-02-06T14:43:36.016Z,13.96
2024-02-06T14:46:06.353Z,13.23
2024-02-06T14:48:35.502Z,12.63
2024-02-06T14:51:03.785Z,12.18
2024-02-06T14:53:31.654Z,11.89
2024-02-06T14:56:00.237Z,12.53
2024-02-06T14:58:28.414Z,13.84
2024-02-06T15:00:57.027Z,14.48
2024-02-06T15:03:25.166Z,13.90
2024-02-06T15:05:53.228Z,13.11
2024-02-06T15:08:21.311Z,12.52
2024-02-06T15:10:49.436Z,12.06
2024-02-06T15:13:17.587Z,12.02
2024-02-06T15:15:45.779Z,12.89
2024-02-06T15:18:15.348Z,13.67
2024-02-06T15:20:45.475Z,13.57
2024-02-06T15:23:13.714Z,12.86
2024-02-06T15:25:41.609Z,12.27
2024-02-06T15:28:10.866Z,11.85
2024-02-06T15:30:39.041Z,11.74
2024-02-06T15:33:07.227Z,12.36
2024-02-06T15:35:35.372Z,12.68
2024-02-06T15:38:03.177Z,12.79
2024-02-06T15:40:31.116Z,12.83
2024-02-06T15:42:59.317Z,12.85
2024-02-06T15:45:27.373Z,12.94
2024-02-06T15:47:55.404Z,12.92
2024-02-06T15:50:23.283Z,12.96
2024-02-06T15:52:51.290Z,12.96
2024-02-06T15:55:21.948Z,13.02
2024-02-06T15:57:49.881Z,13.07
2024-02-06T16:00:19.038Z,13.14
2024-02-06T16:02:47.026Z,13.03
2024-02-06T16:05:15.660Z,12.51
2024-02-06T16:07:47.755Z,11.96
2024-02-06T16:10:16.216Z,11.55
2024-02-06T16:12:50.052Z,11.47
2024-02-06T16:15:22.654Z,12.58
2024-02-06T16:17:51.148Z,13.86
2024-02-06T16:20:19.913Z,14.42
2024-02-06T16:22:47.946Z,13.74
2024-02-06T16:25:16.102Z,12.94
2024-02-06T16:27:48.106Z,12.37
2024-02-06T16:30:16.536Z,11.97
2024-02-06T16:32:44.837Z,11.67
2024-02-06T16:35:13.927Z,12.32
2024-02-06T16:37:43.100Z,13.76
2024-02-06T16:40:11.910Z,14.32
2024-02-06T16:42:43.277Z,13.68
2024-02-06T16:45:13.397Z,12.88
2024-02-06T16:47:41.599Z,12.32
2024-02-06T16:50:10.322Z,11.89
2024-02-06T16:52:38.315Z,11.57
2024-02-06T16:55:07.051Z,11.50
2024-02-06T16:57:35.342Z,12.11
2024-02-06T17:00:04.837Z,13.04
2024-02-06T17:02:32.866Z,13.72
2024-02-06T17:05:02.338Z,13.25
2024-02-06T17:07:30.909Z,12.55
2024-02-06T17:09:59.528Z,12.00
2024-02-06T17:12:29.282Z,11.56
2024-02-06T17:14:57.297Z,11.40
2024-02-06T17:17:25.168Z,11.92
2024-02-06T17:19:53.441Z,12.39
2024-02-06T17:22:21.538Z,12.66
2024-02-06T17:24:49.551Z,13.25
2024-02-06T17:27:17.408Z,13.43
2024-02-06T17:29:45.317Z,12.82
2024-02-06T17:32:13.485Z,12.19
2024-02-06T17:34:46.114Z,11.76
2024-02-06T17:37:14.175Z,11.40
2024-02-06T17:39:42.300Z,11.42
2024-02-06T17:42:10.238Z,11.91
2024-02-06T17:44:38.235Z,12.29
2024-02-06T17:47:06.504Z,12.54
2024-02-06T17:49:34.600Z,12.74
2024-02-06T17:52:02.804Z,12.71
2024-02-06T17:54:30.716Z,12.19
2024-02-06T17:56:58.681Z,11.73
2024-02-06T17:59:26.664Z,11.39
2024-02-06T18:01:54.745Z,11.26
2024-02-06T18:04:22.982Z,11.66
2024-02-06T18:06:51.467Z,12.07
2024-02-06T18:09:20.835Z,12.31
2024-02-06T18:11:49.000Z,12.47
2024-02-06T18:14:17.060Z,12.62
2024-02-06T18:17:21.119Z,12.57
2024-02-06T18:19:50.399Z,11.95
2024-02-06T18:22:18.777Z,11.53
2024-02-06T18:24:46.702Z,11.20
2024-02-06T18:27:14.928Z,11.28
2024-02-06T18:29:42.912Z,11.87
2024-02-06T18:32:10.775Z,12.24
2024-02-06T18:34:42.846Z,12.51
2024-02-06T18:37:11.389Z,12.68
2024-02-06T18:39:39.397Z,12.76
2024-02-06T18:42:07.972Z,12.74
2024-02-06T18:44:36.200Z,12.26
2024-02-06T18:47:07.230Z,11.76
2024-02-06T18:49:38.464Z,11.37
2024-02-06T18:52:06.677Z,11.07
2024-02-06T18:54:35.824Z,11.08
2024-02-06T18:57:05.714Z,11.52
2024-02-06T18:59:33.586Z,11.91
2024-02-06T19:02:01.795Z,12.17
2024-02-06T19:04:29.868Z,12.37
2024-02-06T19:06:58.519Z,12.52
2024-02-06T19:09:26.713Z,12.60
2024-02-06T19:11:55.267Z,12.26
2024-02-06T19:14:23.545Z,11.80
2024-02-06T19:16:51.523Z,11.42
2024-02-06T19:19:19.761Z,11.17
2024-02-06T19:21:48.346Z,11.45
2024-02-06T19:24:16.428Z,11.85
2024-02-06T19:26:45.304Z,12.07
2024-02-06T19:29:13.215Z,12.20
2024-02-06T19:31:42.296Z,12.24
2024-02-06T19:34:10.482Z,12.34
2024-02-06T19:36:41.807Z,12.45
2024-02-06T19:39:10.538Z,12.49
2024-02-06T19:41:38.553Z,12.55
2024-02-06T19:44:06.649Z,12.61
2024-02-06T19:46:34.683Z,12.62
2024-02-06T19:49:02.960Z,12.66
2024-02-06T19:51:33.439Z,12.71
2024-02-06T19:54:01.868Z,12.53
2024-02-06T19:56:33.290Z,12.00
2024-02-06T19:59:01.983Z,11.54
2024-02-06T20:01:30.196Z,11.20
2024-02-06T20:04:00.549Z,11.11
2024-02-06T20:06:28.614Z,11.39
2024-02-06T20:09:02.463Z,11.67
2024-02-06T20:11:34.126Z,11.89
2024-02-06T20:14:02.249Z,12.02
2024-02-06T20:16:30.456Z,12.05
2024-02-06T20:18:58.484Z,12.15
2024-02-06T20:21:27.666Z,12.21
2024-02-06T20:23:57.247Z,12.30
2024-02-06T20:26:25.211Z,12.36
2024-02-06T20:28:53.245Z,12.14
2024-02-06T20:31:21.332Z,11.72
2024-02-06T20:33:49.349Z,11.35
2024-02-06T20:36:17.356Z,11.08
2024-02-06T20:38:45.605Z,10.96
2024-02-06T20:41:13.631Z,11.28
2024-02-06T20:43:41.589Z,11.64
2024-02-06T20:46:12.289Z,11.89
2024-02-06T20:48:40.466Z,12.11
2024-02-06T20:51:08.655Z,12.24
2024-02-06T20:53:36.565Z,12.31
2024-02-06T20:56:05.210Z,12.30
2024-02-06T20:58:33.084Z,11.98
2024-02-06T21:01:00.962Z,11.57
2024-02-06T21:03:29.449Z,11.25
2024-02-06T21:05:57.584Z,11.02
2024-02-06T21:08:25.662Z,10.97
2024-02-06T21:10:53.622Z,11.32
2024-02-06T21:13:22.041Z,11.71
2024-02-06T21:15:50.382Z,11.99
2024-02-06T21:18:18.464Z,12.14
2024-02-06T21:20:46.572Z,12.27
2024-02-06T21:23:15.397Z,12.35
2024-02-06T21:25:43.709Z,12.41
2024-02-06T21:28:11.873Z,12.44
2024-02-06T21:30:40.636Z,12.44
2024-02-06T21:33:08.618Z,12.42
2024-02-06T21:35:36.956Z,12.41
2024-02-06T21:38:04.977Z,12.42
2024-02-06T21:40:33.165Z,12.40
2024-02-06T21:43:01.395Z,12.42
2024-02-06T21:45:29.778Z,12.40
2024-02-06T21:47:58.194Z,12.35
2024-02-06T21:50:26.268Z,12.41
2024-02-06T21:52:54.367Z,12.49
2024-02-06T21:55:22.469Z,12.56
2024-02-06T21:57:51.492Z,12.60
2024-02-06T22:00:19.722Z,12.70
2024-02-06T22:02:48.432Z,12.74
2024-02-06T22:05:16.812Z,12.31
2024-02-06T22:07:45.602Z,11.82
2024-02-06T22:10:13.705Z,11.43
2024-02-06T22:12:41.843Z,11.23
2024-02-06T22:15:09.895Z,11.56
2024-02-06T22:17:40.709Z,11.95
2024-02-06T22:20:10.168Z,12.23
2024-02-06T22:22:41.422Z,12.42
2024-02-06T22:25:11.424Z,12.48
2024-02-06T22:27:39.465Z,12.58
2024-02-06T22:30:08.478Z,12.65
2024-02-06T22:32:36.525Z,12.76
2024-02-06T22:35:05.277Z,12.82
2024-02-06T22:37:33.205Z,12.89
2024-02-06T22:40:04.409Z,12.94
2024-02-06T22:42:32.874Z,13.01
2024-02-06T22:45:00.823Z,12.99
2024-02-06T22:47:28.961Z,12.98
2024-02-06T22:49:57.060Z,12.96
2024-02-06T22:52:25.460Z,12.97
2024-02-06T22:54:53.424Z,13.02
2024-02-06T22:57:21.456Z,13.03
2024-02-06T22:59:49.422Z,13.03
2024-02-06T23:02:18.625Z,13.00
2024-02-06T23:04:46.924Z,12.99
2024-02-06T23:07:15.067Z,12.92
2024-02-06T23:09:47.040Z,12.90
2024-02-06T23:12:15.135Z,12.93
2024-02-06T23:14:43.384Z,13.34
2024-02-06T23:17:12.367Z,14.01
2024-02-06T23:19:40.249Z,13.80
2024-02-06T23:22:08.429Z,12.92
2024-02-06T23:24:36.359Z,12.24
2024-02-06T23:27:04.861Z,11.88
2024-02-06T23:29:32.936Z,12.80
2024-02-06T23:32:00.843Z,14.17
2024-02-06T23:34:29.147Z,14.81
2024-02-06T23:36:57.206Z,14.07
2024-02-06T23:39:25.074Z,13.13
2024-02-06T23:41:52.995Z,12.44
2024-02-06T23:44:22.639Z,11.94
2024-02-06T23:46:50.638Z,11.63
2024-02-06T23:49:18.826Z,11.88
2024-02-06T23:51:46.906Z,12.21
2024-02-06T23:54:15.632Z,12.46
2024-02-06T23:56:43.651Z,12.64
2024-02-06T23:59:11.857Z,12.76
